createdAt,value
2022-12-18T00:00:49.291Z,10.25
2022-12-18T00:03:16.798Z,10.45
2022-12-18T00:05:51.074Z,10.70
2022-12-18T00:08:18.229Z,9.73
2022-12-18T00:10:45.764Z,10.50
2022-12-18T00:13:13.178Z,10.18
2022-12-18T00:15:40.206Z,10.50
2022-12-18T00:18:07.216Z,9.93
2022-12-18T00:20:38.134Z,9.80
2022-12-18T00:23:05.351Z,9.85
2022-12-18T00:25:36.663Z,9.40
2022-12-18T00:28:06.575Z,9.75
2022-12-18T00:30:33.281Z,9.55
2022-12-18T00:32:59.965Z,9.73
2022-12-18T00:35:26.586Z,9.27
2022-12-18T00:37:53.283Z,9.10
2022-12-18T00:40:19.932Z,9.35
2022-12-18T00:42:58.585Z,8.93
2022-12-18T00:45:26.953Z,8.77
2022-12-18T00:47:54.134Z,9.35
2022-12-18T00:50:21.462Z,9.05
2022-12-18T00:52:48.231Z,8.50
2022-12-18T00:55:15.743Z,9.00
2022-12-18T00:57:42.817Z,8.55
2022-12-18T01:00:12.710Z,9.10
2022-12-18T01:02:39.768Z,8.60
2022-12-18T01:05:08.499Z,8.77
2022-12-18T01:07:35.144Z,8.77
2022-12-18T01:10:03.811Z,8.60
2022-12-18T01:12:30.520Z,8.10
2022-12-18T01:14:57.272Z,8.43
2022-12-18T01:17:24.059Z,8.45
2022-12-18T01:19:50.722Z,8.82
2022-12-18T01:22:17.407Z,8.75
2022-12-18T01:24:45.128Z,8.50
2022-12-18T01:27:11.821Z,8.20
2022-12-18T01:29:40.108Z,7.55
2022-12-18T01:32:06.951Z,8.10
2022-12-18T01:34:33.780Z,8.20
2022-12-18T01:37:04.791Z,7.90
2022-12-18T01:39:33.035Z,8.13
2022-12-18T01:42:03.925Z,8.02
2022-12-18T01:44:56.324Z,8.30
2022-12-18T01:47:33.294Z,8.25
2022-12-18T01:50:03.485Z,7.97
2022-12-18T01:52:33.143Z,8.32
2022-12-18T01:55:01.883Z,8.20
2022-12-18T01:57:29.440Z,8.13
2022-12-18T02:00:01.871Z,8.40
2022-12-18T02:02:41.513Z,7.55
2022-12-18T02:05:09.301Z,8.20
2022-12-18T02:08:14.041Z,7.93
2022-12-18T02:11:00.515Z,8.05
2022-12-18T02:13:42.558Z,7.30
2022-12-18T02:16:15.307Z,7.85
2022-12-18T02:18:45.572Z,7.20
2022-12-18T02:21:28.422Z,7.47
2022-12-18T02:24:23.079Z,7.43
2022-12-18T02:26:56.802Z,7.70
2022-12-18T02:29:30.796Z,7.70
2022-12-18T02:31:59.416Z,7.88
2022-12-18T02:34:32.218Z,7.30
2022-12-18T02:36:59.742Z,7.43
2022-12-18T02:39:27.976Z,7.43
2022-12-18T02:42:08.644Z,7.25
2022-12-18T02:44:37.119Z,7.55
2022-12-18T02:47:05.204Z,7.47
2022-12-18T02:49:50.357Z,7.38
2022-12-18T02:52:36.014Z,7.40
2022-12-18T02:55:35.269Z,7.97
2022-12-18T02:58:27.636Z,7.68
2022-12-18T03:01:12.396Z,7.90
2022-12-18T03:04:04.992Z,7.65
2022-12-18T03:06:35.105Z,7.40
2022-12-18T03:09:08.620Z,7.88
2022-12-18T03:11:57.157Z,7.32
2022-12-18T03:14:24.689Z,7.45
2022-12-18T03:16:54.586Z,7.30
2022-12-18T03:19:23.770Z,7.03
2022-12-18T03:21:55.729Z,7.05
2022-12-18T03:24:24.336Z,7.53
2022-12-18T03:26:54.674Z,7.22
2022-12-18T03:29:37.403Z,7.38
2022-12-18T03:32:29.364Z,6.78
2022-12-18T03:35:02.317Z,7.40
2022-12-18T03:37:32.840Z,7.32
2022-12-18T03:40:00.039Z,7.45
2022-12-18T03:42:49.591Z,7.10
2022-12-18T03:45:47.437Z,7.43
2022-12-18T03:48:22.598Z,7.25
2022-12-18T03:53:43.128Z,6.88
2022-12-18T03:56:12.473Z,7.13
2022-12-18T03:58:41.586Z,7.28
2022-12-18T04:01:19.171Z,6.97
2022-12-18T04:03:47.963Z,7.38
2022-12-18T04:06:15.439Z,7.07
2022-12-18T04:08:43.796Z,6.80
2022-12-18T04:11:13.573Z,7.30
2022-12-18T04:13:40.744Z,7.25
2022-12-18T04:16:14.044Z,7.05
2022-12-18T04:18:43.236Z,6.90
2022-12-18T04:21:11.186Z,7.10
2022-12-18T04:23:38.559Z,7.22
2022-12-18T04:26:05.533Z,7.00
2022-12-18T04:29:01.320Z,6.65
2022-12-18T04:31:29.061Z,7.13
2022-12-18T04:33:56.577Z,7.40
2022-12-18T04:36:23.812Z,7.20
2022-12-18T04:38:50.952Z,6.78
2022-12-18T04:41:18.428Z,6.75
2022-12-18T04:43:48.242Z,6.97
2022-12-18T04:46:14.874Z,7.05
2022-12-18T04:48:41.829Z,6.90
2022-12-18T04:51:08.512Z,7.07
2022-12-18T04:53:35.195Z,6.90
2022-12-18T04:56:05.010Z,7.43
2022-12-18T04:58:31.619Z,7.55
2022-12-18T05:00:58.217Z,7.30
2022-12-18T05:03:24.967Z,7.68
2022-12-18T05:05:52.348Z,7.03
2022-12-18T05:08:19.269Z,6.90
2022-12-18T05:10:46.653Z,7.50
2022-12-18T05:13:13.666Z,7.18
2022-12-18T05:15:40.424Z,7.15
2022-12-18T05:18:07.124Z,7.13
2022-12-18T05:20:33.750Z,7.05
2022-12-18T05:23:00.451Z,6.70
2022-12-18T05:25:27.738Z,6.82
2022-12-18T05:27:54.340Z,7.25
2022-12-18T05:30:21.062Z,7.28
2022-12-18T05:32:47.965Z,7.22
2022-12-18T05:35:14.540Z,6.60
2022-12-18T05:37:43.439Z,6.20
2022-12-18T05:40:10.969Z,6.47
2022-12-18T05:42:37.715Z,6.97
2022-12-18T05:45:05.205Z,6.88
2022-12-18T05:47:32.032Z,6.70
2022-12-18T05:49:58.753Z,7.25
2022-12-18T05:52:25.639Z,7.10
2022-12-18T05:54:52.300Z,7.18
2022-12-18T05:57:19.183Z,6.80
2022-12-18T05:59:45.927Z,6.70
2022-12-18T06:02:12.682Z,6.78
2022-12-18T06:04:39.422Z,6.90
2022-12-18T06:07:06.100Z,7.15
2022-12-18T06:09:33.144Z,7.07
2022-12-18T06:11:59.969Z,6.90
2022-12-18T06:14:26.671Z,6.85
2022-12-18T06:16:53.436Z,7.07
2022-12-18T06:19:20.089Z,6.47
2022-12-18T06:21:47.402Z,6.35
2022-12-18T06:24:13.958Z,6.18
2022-12-18T06:26:40.924Z,6.68
2022-12-18T06:29:07.576Z,6.85
2022-12-18T06:31:34.332Z,6.32
2022-12-18T06:34:04.076Z,6.45
2022-12-18T06:36:31.689Z,6.22
2022-12-18T06:38:58.819Z,6.32
2022-12-18T06:41:25.615Z,6.70
2022-12-18T06:43:56.846Z,6.93
2022-12-18T06:46:26.601Z,6.25
2022-12-18T06:48:53.846Z,6.75
2022-12-18T06:51:21.920Z,6.80
2022-12-18T06:53:48.634Z,6.18
2022-12-18T06:56:15.574Z,6.95
2022-12-18T06:58:42.532Z,6.03
2022-12-18T07:01:11.362Z,6.72
2022-12-18T07:03:39.971Z,6.97
2022-12-18T07:06:07.880Z,6.50
2022-12-18T07:08:34.803Z,6.80
2022-12-18T07:11:04.535Z,6.45
2022-12-18T07:13:31.299Z,6.63
2022-12-18T07:16:08.543Z,6.70
2022-12-18T07:18:38.185Z,6.45
2022-12-18T07:21:09.760Z,6.80
2022-12-18T07:23:36.968Z,7.13
2022-12-18T07:26:12.881Z,7.03
2022-12-18T07:28:41.727Z,6.97
2022-12-18T07:31:11.532Z,6.55
2022-12-18T07:33:39.461Z,6.45
2022-12-18T07:36:08.525Z,6.85
2022-12-18T07:38:36.031Z,6.63
2022-12-18T07:41:07.212Z,7.10
2022-12-18T07:43:34.598Z,7.00
2022-12-18T07:46:01.692Z,7.10
2022-12-18T07:48:29.583Z,7.20
2022-12-18T07:51:01.309Z,7.15
2022-12-18T07:53:28.088Z,7.30
2022-12-18T07:56:26.541Z,7.95
2022-12-18T07:58:49.927Z,7.10
2022-12-18T08:01:16.750Z,7.22
2022-12-18T08:03:44.009Z,7.45
2022-12-18T08:06:11.240Z,7.47
2022-12-18T08:08:38.088Z,7.38
2022-12-18T08:11:04.971Z,6.93
2022-12-18T08:13:31.701Z,7.47
2022-12-18T08:16:16.877Z,7.45
2022-12-18T08:18:43.590Z,7.40
2022-12-18T08:21:10.622Z,7.40
2022-12-18T08:23:42.674Z,8.10
2022-12-18T08:26:10.726Z,8.07
2022-12-18T08:28:37.358Z,8.18
2022-12-18T08:31:04.952Z,8.52
2022-12-18T08:33:32.790Z,8.63
2022-12-18T08:36:00.572Z,8.40
2022-12-18T08:38:28.296Z,7.90
2022-12-18T08:41:07.149Z,7.90
2022-12-18T08:43:56.664Z,8.55
2022-12-18T08:46:25.344Z,8.43
2022-12-18T08:48:53.754Z,8.18
2022-12-18T08:51:22.017Z,7.85
2022-12-18T08:53:49.717Z,9.10
2022-12-18T08:56:17.457Z,10.48
2022-12-18T08:58:49.235Z,10.98
2022-12-18T09:01:16.659Z,10.93
2022-12-18T09:03:45.322Z,10.10
2022-12-18T09:06:16.646Z,10.05
2022-12-18T09:08:46.818Z,10.07
2022-12-18T09:11:25.332Z,9.68
2022-12-18T09:13:52.552Z,9.48
2022-12-18T09:16:20.583Z,9.38
2022-12-18T09:18:48.327Z,9.32
2022-12-18T09:21:20.881Z,8.40
2022-12-18T09:23:51.565Z,10.00
2022-12-18T09:26:18.287Z,10.18
2022-12-18T09:28:45.161Z,10.32
2022-12-18T09:31:16.171Z,9.45
2022-12-18T09:33:43.087Z,9.65
2022-12-18T09:36:11.322Z,9.35
2022-12-18T09:38:38.532Z,9.65
2022-12-18T09:41:33.263Z,10.48
2022-12-18T09:44:03.975Z,10.63
2022-12-18T09:46:34.888Z,10.68
2022-12-18T09:49:04.182Z,9.88
2022-12-18T09:51:34.826Z,9.48
2022-12-18T09:54:07.836Z,9.95
2022-12-18T09:56:37.949Z,9.85
2022-12-18T09:59:05.873Z,9.55
2022-12-18T10:01:41.573Z,9.73
2022-12-18T10:04:10.881Z,10.32
2022-12-18T10:06:43.211Z,10.57
2022-12-18T10:09:12.502Z,11.10
2022-12-18T10:11:57.553Z,12.98
2022-12-18T10:14:41.259Z,14.40
2022-12-18T10:17:29.374Z,16.95
2022-12-18T10:20:09.004Z,18.90
2022-12-18T10:22:35.660Z,19.60
2022-12-18T10:25:23.112Z,20.70
2022-12-18T10:27:54.257Z,21.63
2022-12-18T10:30:23.301Z,23.55
2022-12-18T10:32:50.226Z,23.95
2022-12-18T10:35:27.763Z,24.17
2022-12-18T10:38:06.335Z,25.42
2022-12-18T10:40:34.018Z,26.45
2022-12-18T10:43:14.570Z,26.75
2022-12-18T10:45:41.968Z,28.58
2022-12-18T10:48:22.337Z,28.23
2022-12-18T10:53:38.405Z,29.48
2022-12-18T10:56:06.589Z,29.48
2022-12-18T10:58:36.473Z,27.10
2022-12-18T11:01:09.826Z,26.95
2022-12-18T11:03:46.796Z,28.42
2022-12-18T11:06:17.389Z,27.73
2022-12-18T11:08:46.973Z,28.40
2022-12-18T11:11:24.606Z,28.73
2022-12-18T11:14:01.786Z,28.50
2022-12-18T11:16:29.447Z,28.20
2022-12-18T11:18:57.052Z,27.48
2022-12-18T11:21:23.752Z,27.77
2022-12-18T11:23:54.434Z,28.35
2022-12-18T11:26:22.472Z,27.63
2022-12-18T11:28:52.825Z,28.08
2022-12-18T11:31:24.347Z,27.42
2022-12-18T11:34:28.605Z,26.55
2022-12-18T11:36:56.126Z,26.70
2022-12-18T11:39:33.208Z,27.08
2022-12-18T11:42:11.070Z,26.48
2022-12-18T11:44:53.853Z,26.83
2022-12-18T11:47:40.227Z,24.98
2022-12-18T11:50:14.799Z,25.63
2022-12-18T11:52:42.007Z,25.33
2022-12-18T11:55:34.692Z,25.27
2022-12-18T11:58:05.104Z,24.10
2022-12-18T12:00:31.782Z,25.50
2022-12-18T12:03:25.487Z,25.65
2022-12-18T12:06:11.622Z,24.63
2022-12-18T12:08:57.225Z,24.40
2022-12-18T12:11:29.765Z,23.73
2022-12-18T12:14:07.138Z,25.33
2022-12-18T12:16:40.805Z,24.50
2022-12-18T12:19:15.125Z,23.52
2022-12-18T12:21:43.987Z,23.60
2022-12-18T12:24:31.922Z,23.75
2022-12-18T12:27:09.696Z,24.33
2022-12-18T12:29:40.578Z,24.02
2022-12-18T12:32:25.944Z,24.23
2022-12-18T12:35:07.780Z,24.52
2022-12-18T12:38:20.856Z,23.77
2022-12-18T12:41:29.124Z,22.98
2022-12-18T12:43:58.516Z,23.65
2022-12-18T12:46:25.944Z,24.23
2022-12-18T12:49:01.925Z,23.52
2022-12-18T12:51:41.754Z,23.13
2022-12-18T12:54:16.543Z,23.23
2022-12-18T12:56:59.002Z,22.83
2022-12-18T12:59:41.332Z,23.35
2022-12-18T13:02:24.439Z,22.73
2022-12-18T13:05:03.186Z,22.77
2022-12-18T13:08:00.851Z,21.67
2022-12-18T13:10:32.323Z,21.63
2022-12-18T13:13:05.003Z,21.35
2022-12-18T13:15:44.295Z,21.52
2022-12-18T13:18:14.978Z,20.73
2022-12-18T13:20:55.354Z,22.13
2022-12-18T13:23:25.074Z,20.95
2022-12-18T13:25:56.206Z,21.00
2022-12-18T13:28:48.432Z,21.45
2022-12-18T13:31:34.883Z,20.33
2022-12-18T13:34:26.897Z,20.15
2022-12-18T13:36:56.571Z,20.58
2022-12-18T13:39:30.242Z,40.05
2022-12-18T13:42:07.148Z,53.58
2022-12-18T13:44:40.870Z,48.38
2022-12-18T13:47:33.758Z,47.00
2022-12-18T13:50:01.504Z,43.70
2022-12-18T13:52:30.041Z,42.22
2022-12-18T13:54:58.990Z,39.50
2022-12-18T13:57:36.603Z,36.17
2022-12-18T14:00:21.467Z,34.67
2022-12-18T14:02:48.316Z,33.90
2022-12-18T14:05:26.700Z,33.40
2022-12-18T14:07:54.595Z,32.20
2022-12-18T14:13:11.033Z,29.20
2022-12-18T14:15:48.002Z,28.42
2022-12-18T14:18:26.796Z,27.67
2022-12-18T14:20:56.075Z,27.52
2022-12-18T14:23:40.533Z,26.38
2022-12-18T14:26:29.387Z,26.15
2022-12-18T14:28:57.318Z,29.98
2022-12-18T14:31:26.373Z,28.30
2022-12-18T14:33:53.874Z,26.85
2022-12-18T14:36:28.898Z,26.45
2022-12-18T14:38:57.329Z,25.33
2022-12-18T14:41:24.526Z,24.50
2022-12-18T14:43:53.195Z,24.05
2022-12-18T14:46:35.107Z,23.70
2022-12-18T14:49:04.970Z,23.92
2022-12-18T14:51:33.314Z,23.42
2022-12-18T14:54:05.668Z,24.10
2022-12-18T14:56:35.517Z,23.30
2022-12-18T14:59:04.390Z,22.35
2022-12-18T15:01:38.740Z,21.67
2022-12-18T15:04:06.815Z,22.58
2022-12-18T15:06:38.890Z,22.55
2022-12-18T15:09:25.550Z,21.83
2022-12-18T15:11:58.693Z,21.80
2022-12-18T15:14:33.051Z,21.15
2022-12-18T15:17:01.860Z,21.42
2022-12-18T15:19:40.367Z,21.98
2022-12-18T15:22:19.917Z,21.45
2022-12-18T15:24:46.982Z,21.60
2022-12-18T15:27:45.750Z,21.30
2022-12-18T15:30:21.082Z,21.35
2022-12-18T15:32:48.753Z,20.95
2022-12-18T15:35:23.916Z,21.38
2022-12-18T15:37:52.188Z,22.13
2022-12-18T15:40:21.232Z,21.20
2022-12-18T15:43:07.821Z,20.38
2022-12-18T15:45:34.727Z,20.10
2022-12-18T15:48:16.675Z,21.33
2022-12-18T15:50:43.339Z,20.92
2022-12-18T15:53:10.194Z,20.40
2022-12-18T15:56:00.865Z,20.50
2022-12-18T15:58:27.939Z,20.92
2022-12-18T16:00:56.810Z,20.15
2022-12-18T16:03:23.515Z,20.02
2022-12-18T16:05:50.926Z,20.05
2022-12-18T16:08:17.632Z,19.45
2022-12-18T16:10:44.454Z,19.80
2022-12-18T16:13:17.218Z,19.85
2022-12-18T16:15:43.957Z,19.60
2022-12-18T16:18:10.794Z,18.88
2022-12-18T16:20:37.428Z,18.55
2022-12-18T16:23:04.163Z,18.55
2022-12-18T16:25:31.295Z,19.52
2022-12-18T16:27:58.000Z,19.23
2022-12-18T16:30:28.823Z,19.17
2022-12-18T16:32:59.697Z,18.55
2022-12-18T16:35:27.419Z,19.00
2022-12-18T16:37:54.232Z,18.92
2022-12-18T16:40:20.995Z,18.23
2022-12-18T16:42:50.000Z,18.95
2022-12-18T16:45:18.364Z,18.63
2022-12-18T16:47:46.567Z,17.90
2022-12-18T16:50:13.609Z,18.58
2022-12-18T16:52:40.687Z,18.20
2022-12-18T16:55:08.295Z,18.42
2022-12-18T16:57:36.901Z,17.83
2022-12-18T17:00:09.246Z,18.15
2022-12-18T17:02:38.168Z,17.83
2022-12-18T17:05:06.631Z,17.92
2022-12-18T17:07:33.424Z,17.73
2022-12-18T17:10:01.548Z,18.15
2022-12-18T17:12:29.699Z,17.92
2022-12-18T17:14:56.446Z,17.30
2022-12-18T17:17:24.197Z,17.60
2022-12-18T17:19:54.684Z,17.77
2022-12-18T17:22:23.649Z,17.08
2022-12-18T17:24:51.999Z,17.17
2022-12-18T17:27:20.216Z,17.67
2022-12-18T17:29:48.571Z,16.80
2022-12-18T17:32:20.960Z,16.48
2022-12-18T17:34:48.095Z,17.05
2022-12-18T17:37:18.045Z,17.38
2022-12-18T17:39:45.362Z,17.10
2022-12-18T17:42:15.035Z,17.40
2022-12-18T17:44:44.387Z,16.55
2022-12-18T17:47:16.820Z,16.77
2022-12-18T17:49:46.612Z,17.10
2022-12-18T17:52:13.636Z,16.70
2022-12-18T17:54:42.246Z,16.67
2022-12-18T17:57:09.244Z,16.55
2022-12-18T17:59:36.957Z,16.27
2022-12-18T18:02:05.479Z,16.90
2022-12-18T18:04:32.684Z,16.98
2022-12-18T18:06:59.368Z,16.92
2022-12-18T18:09:26.151Z,16.67
2022-12-18T18:12:11.271Z,16.33
2022-12-18T18:14:38.005Z,16.45
2022-12-18T18:17:05.704Z,16.45
2022-12-18T18:19:33.054Z,16.63
2022-12-18T18:21:59.957Z,16.48
2022-12-18T18:24:26.991Z,15.70
2022-12-18T18:26:56.725Z,16.13
2022-12-18T18:29:26.696Z,16.55
2022-12-18T18:31:54.663Z,16.55
2022-12-18T18:34:27.005Z,16.63
2022-12-18T18:36:53.845Z,16.40
2022-12-18T18:39:20.488Z,17.73
2022-12-18T18:41:48.491Z,16.55
2022-12-18T18:44:16.728Z,16.48
2022-12-18T18:46:43.623Z,16.90
2022-12-18T18:49:10.748Z,17.88
2022-12-18T18:51:37.349Z,17.30
2022-12-18T18:54:04.166Z,16.67
2022-12-18T18:56:56.529Z,15.88
2022-12-18T18:59:18.457Z,16.75
2022-12-18T19:01:45.286Z,15.98
2022-12-18T19:04:12.102Z,16.80
2022-12-18T19:06:39.208Z,17.60
2022-12-18T19:09:06.745Z,16.58
2022-12-18T19:11:52.203Z,16.35
2022-12-18T19:14:19.164Z,16.40
2022-12-18T19:16:45.924Z,16.38
2022-12-18T19:19:13.366Z,15.45
2022-12-18T19:21:40.487Z,15.70
2022-12-18T19:24:07.460Z,16.17
2022-12-18T19:26:35.894Z,16.30
2022-12-18T19:29:08.339Z,16.08
2022-12-18T19:31:37.165Z,15.98
2022-12-18T19:34:08.174Z,16.30
2022-12-18T19:36:37.676Z,15.65
2022-12-18T19:39:09.750Z,15.88
2022-12-18T19:41:36.395Z,15.23
2022-12-18T19:44:07.497Z,15.98
2022-12-18T19:46:35.388Z,15.57
2022-12-18T19:49:02.268Z,15.45
2022-12-18T19:51:30.661Z,15.27
2022-12-18T19:54:00.539Z,16.20
2022-12-18T19:56:33.125Z,15.57
2022-12-18T19:59:00.415Z,15.93
2022-12-18T20:01:28.755Z,16.08
2022-12-18T20:03:57.406Z,15.68
2022-12-18T20:06:26.686Z,15.63
2022-12-18T20:08:54.642Z,14.95
2022-12-18T20:11:26.639Z,14.18
2022-12-18T20:13:53.236Z,14.48
2022-12-18T20:16:19.930Z,15.30
2022-12-18T20:18:46.712Z,14.73
2022-12-18T20:21:14.106Z,14.65
2022-12-18T20:23:41.617Z,14.80
2022-12-18T20:26:08.770Z,14.57
2022-12-18T20:28:35.622Z,14.75
2022-12-18T20:31:04.765Z,14.95
2022-12-18T20:33:32.853Z,14.52
2022-12-18T20:36:06.046Z,14.20
2022-12-18T20:38:34.119Z,14.88
2022-12-18T20:41:02.566Z,15.95
2022-12-18T20:43:29.767Z,14.25
2022-12-18T20:46:04.468Z,15.13
2022-12-18T20:48:31.733Z,15.35
2022-12-18T20:51:05.878Z,15.55
2022-12-18T20:53:33.462Z,15.67
2022-12-18T20:56:00.234Z,16.55
2022-12-18T20:58:26.936Z,16.70
2022-12-18T21:01:06.382Z,16.17
2022-12-18T21:03:33.156Z,15.73
2022-12-18T21:05:59.906Z,15.80
2022-12-18T21:08:26.588Z,16.27
2022-12-18T21:10:53.435Z,16.77
2022-12-18T21:13:22.560Z,16.95
2022-12-18T21:15:49.172Z,16.92
2022-12-18T21:18:15.763Z,16.73
2022-12-18T21:20:42.328Z,17.77
2022-12-18T21:23:16.595Z,16.90
2022-12-18T21:25:44.413Z,17.55
2022-12-18T21:28:12.378Z,16.80
2022-12-18T21:30:39.235Z,17.23
2022-12-18T21:33:05.993Z,17.35
2022-12-18T21:35:32.768Z,16.98
2022-12-18T21:37:59.456Z,16.33
2022-12-18T21:40:26.580Z,17.38
2022-12-18T21:43:14.934Z,16.52
2022-12-18T21:45:44.561Z,16.92
2022-12-18T21:48:12.212Z,16.60
2022-12-18T21:50:38.860Z,17.27
2022-12-18T21:53:05.558Z,16.33
2022-12-18T21:55:32.237Z,17.52
2022-12-18T21:57:58.868Z,17.50
2022-12-18T22:00:25.539Z,16.67
2022-12-18T22:03:16.938Z,16.42
2022-12-18T22:05:38.749Z,15.98
2022-12-18T22:08:06.956Z,16.35
2022-12-18T22:10:34.046Z,16.05
2022-12-18T22:13:00.927Z,16.33
2022-12-18T22:15:27.576Z,16.75
2022-12-18T22:17:59.807Z,15.88
2022-12-18T22:20:27.171Z,16.13
2022-12-18T22:22:53.821Z,15.75
2022-12-18T22:25:20.420Z,16.60
2022-12-18T22:28:07.014Z,16.38
2022-12-18T22:30:34.087Z,15.38
2022-12-18T22:33:01.227Z,16.27
2022-12-18T22:35:27.972Z,16.10
2022-12-18T22:37:54.636Z,15.50
2022-12-18T22:40:26.841Z,15.00
2022-12-18T22:42:54.524Z,15.15
2022-12-18T22:45:22.558Z,15.23
2022-12-18T22:47:49.489Z,15.45
2022-12-18T22:50:16.225Z,15.65
2022-12-18T22:52:42.867Z,14.88
2022-12-18T22:55:09.583Z,15.32
2022-12-18T22:57:36.257Z,15.10
2022-12-18T23:00:05.602Z,14.32
2022-12-18T23:02:32.349Z,15.38
2022-12-18T23:04:59.356Z,15.85
2022-12-18T23:07:26.060Z,15.52
2022-12-18T23:09:53.723Z,14.48
2022-12-18T23:12:27.588Z,15.15
2022-12-18T23:14:54.365Z,14.18
2022-12-18T23:17:21.014Z,14.88
2022-12-18T23:19:49.394Z,15.13
2022-12-18T23:22:16.953Z,15.38
2022-12-18T23:24:43.689Z,14.95
2022-12-18T23:27:11.448Z,14.40
2022-12-18T23:29:39.022Z,14.70
2022-12-18T23:32:05.777Z,14.75
2022-12-18T23:34:32.439Z,15.98
2022-12-18T23:36:59.205Z,15.57
2022-12-18T23:39:29.572Z,15.20
2022-12-18T23:42:00.451Z,15.55
2022-12-18T23:44:27.729Z,15.15
2022-12-18T23:46:54.617Z,14.32
2022-12-18T23:49:21.382Z,14.75
2022-12-18T23:51:48.557Z,14.52
2022-12-18T23:54:15.248Z,14.68
2022-12-18T23:56:41.927Z,15.00
2022-12-18T23:59:08.737Z,14.60
